Vicksburg, Mississippi
Current Conditions -  °F | °C
As of 12:55 AM on Friday 19 Dec 2014 (Local Time) from KVKS Reporting Station
Overcast Overcast  
Wind Chill: 10°   Ceiling: 2600
Heat Index: 10°   Visibility: 10mi
Dew Point:   Wind: 3mph
Humidity: 82%   Direction: NA
Pressure: 30.16"   Gusts: NA
Location:  32.35°N, 90.88°W
Report Text: KVKS 190655Z AUTO VRB03KT 10SM OVC026 10/07 A3016 RMK A01
Loading
Personal Weather Stations






























Interactive Weather Map New forecast layout! Learn more

10-Day Weather Forecast

Advertisements
Track Severe Weather on mobile